Virtual Futura



 METAR AND TAF INFORMATION
METAR FOR LEVT
ADDS - METARS form results

(1048 UTC 18 October 2019)
Data provider http://aviationweather.gov/metar/data/
 
METAR text: LEVT 181030Z VRB01KT 9999 SCT010 SCT020 15/12 Q1017
Conditions at: LEVT (VITORIA , ES) observed 1030 UTC 18 October 2019
Temperature: 15.0°C (59°F)
Dewpoint: 12.0°C (54°F) [RH = 82%]
Pressure (altimeter): 30.03 inches Hg (1017.0 mb)
Winds: variable direction winds at 1 MPH (1 knots; 0.5 m/s)
Visibility: 6 or more miles (10+ km)
Ceiling: at least 12,000 feet AGL
Clouds: scattered clouds at 1000 feet AGL
scattered clouds at 2000 feet AGL
Weather: no significant weather observed at this time

METAR text: LEVT 181000Z 25001KT 9999 SCT010 BKN020 14/12 Q1017
Conditions at: LEVT (VITORIA , ES) observed 1000 UTC 18 October 2019
Temperature: 14.0°C (57°F)
Dewpoint: 12.0°C (54°F) [RH = 88%]
Pressure (altimeter): 30.03 inches Hg (1017.0 mb)
Winds: from the WSW (250 degrees) at 1 MPH (1 knots; 0.5 m/s)
Visibility: 6 or more miles (10+ km)
Ceiling: 2000 feet AGL
Clouds: scattered clouds at 1000 feet AGL
broken clouds at 2000 feet AGL
Weather: no significant weather observed at this time

Forecast for: LEVT (VITORIA , ES)
Text: TAF LEVT 180500Z 1806/1906 VRB04KT 9999 SCT020 BKN040 TX20/1815Z TN11/1906Z
Forecast period: 0600 UTC 18 October 2019 to 0600 UTC 19 October 2019
Forecast type: FROM: standard forecast or significant change
Winds: variable direction winds at 5 MPH (4 knots; 2.1 m/s)
Visibility: 6 or more miles 10+ km)
Ceiling: 4000 feet AGL
Clouds: scattered clouds at 2000 feet AGL
broken clouds at 4000 feet AGL
Weather: no significant weather forecast for this period
Text: PROB30
Forecast period: 0600 to 1500 UTC 18 October 2019
Forecast type: TEMPORARY: The following changes expected for less than half the time period
Winds: from the N (10 degrees) at 12 MPH (10 knots; 5.1 m/s)
Visibility: missing
Ceiling: unknown
Clouds: missing
Weather: no significant weather forecast for this period
Text: TEMPO 1806/1815 01010KT
Forecast period: 0200 to 0600 UTC 19 October 2019
Forecast type: TEMPORARY: The following changes expected for less than half the time period
Visibility: missing
Ceiling: unknown
Clouds: missing
Weather: RA  (moderate rain)

 AIRPORT MAP

 RUNWAY INFORMATION
Runway 04 Runway length 11483 ft Runway width 148 ft
Runway elevation 1651 ft Runway displaced threshold 0 ft Runway heading 36
Runway 22 Runway length 11483 ft Runway width 148 ft
Runway elevation 1682 ft Runway displaced threshold 0 ft Runway heading 216

 AIRPORT FREQUENCIES
Type GND Name GND Frequency 121.8 MHZ
Type TWR Name TWR Frequency 118.45 MHZ

 AIRPORT NEAR NAVIGATION AIDS
Type VOR-DME Name Vitoria Frequency 112900 KHZ
Type VOR-DME Name Vitoria Frequency 116600 KHZ

Poltica de Cookies

Esta web utiliza cookies para obtener datos estadsticos de la navegacin de sus usuarios. Si continas navegando consideramos que aceptas su uso. Ms informacin X Cerrar